sensor_id;sensor_type;location;lat;lon;timestamp;temperature;humidity
40932;DHT22;36257;46.052;12.540;2023-05-10T00:01:04;15.70;75.20
40932;DHT22;36257;46.052;12.540;2023-05-10T00:03:29;15.70;74.80
40932;DHT22;36257;46.052;12.540;2023-05-10T00:05:55;15.70;74.80
40932;DHT22;36257;46.052;12.540;2023-05-10T00:08:21;15.70;76.00
40932;DHT22;36257;46.052;12.540;2023-05-10T00:10:47;15.70;75.90
40932;DHT22;36257;46.052;12.540;2023-05-10T00:13:12;15.60;75.10
40932;DHT22;36257;46.052;12.540;2023-05-10T00:15:38;15.60;75.60
40932;DHT22;36257;46.052;12.540;2023-05-10T00:18:04;15.60;75.50
40932;DHT22;36257;46.052;12.540;2023-05-10T00:20:30;15.70;76.30
40932;DHT22;36257;46.052;12.540;2023-05-10T00:22:55;15.60;77.70
40932;DHT22;36257;46.052;12.540;2023-05-10T00:25:21;15.50;77.80
40932;DHT22;36257;46.052;12.540;2023-05-10T00:27:47;15.50;77.80
40932;DHT22;36257;46.052;12.540;2023-05-10T00:30:13;15.50;78.10
40932;DHT22;36257;46.052;12.540;2023-05-10T00:32:38;15.40;78.60
40932;DHT22;36257;46.052;12.540;2023-05-10T00:35:04;15.40;75.70
40932;DHT22;36257;46.052;12.540;2023-05-10T00:37:30;15.40;76.00
40932;DHT22;36257;46.052;12.540;2023-05-10T00:39:56;15.40;75.30
40932;DHT22;36257;46.052;12.540;2023-05-10T00:42:21;15.40;77.20
40932;DHT22;36257;46.052;12.540;2023-05-10T00:44:47;15.40;78.00
40932;DHT22;36257;46.052;12.540;2023-05-10T00:47:13;15.40;78.90
40932;DHT22;36257;46.052;12.540;2023-05-10T00:49:39;15.40;80.10
40932;DHT22;36257;46.052;12.540;2023-05-10T00:52:05;15.40;81.10
40932;DHT22;36257;46.052;12.540;2023-05-10T00:54:31;15.20;82.20
40932;DHT22;36257;46.052;12.540;2023-05-10T00:56:57;15.10;82.70
40932;DHT22;36257;46.052;12.540;2023-05-10T00:59:24;15.20;82.30
40932;DHT22;36257;46.052;12.540;2023-05-10T01:01:49;15.20;82.70
40932;DHT22;36257;46.052;12.540;2023-05-10T01:04:17;15.10;83.30
40932;DHT22;36257;46.052;12.540;2023-05-10T01:06:43;15.10;84.00
40932;DHT22;36257;46.052;12.540;2023-05-10T01:09:09;15.00;84.70
40932;DHT22;36257;46.052;12.540;2023-05-10T01:11:37;14.90;84.80
40932;DHT22;36257;46.052;12.540;2023-05-10T01:14:03;14.80;84.80
40932;DHT22;36257;46.052;12.540;2023-05-10T01:16:34;14.90;84.80
40932;DHT22;36257;46.052;12.540;2023-05-10T01:19:01;14.80;85.10
40932;DHT22;36257;46.052;12.540;2023-05-10T01:21:57;14.80;85.20
40932;DHT22;36257;46.052;12.540;2023-05-10T01:33:35;14.80;86.40
40932;DHT22;36257;46.052;12.540;2023-05-10T01:41:54;14.80;86.90
40932;DHT22;36257;46.052;12.540;2023-05-10T01:44:35;14.70;86.90
40932;DHT22;36257;46.052;12.540;2023-05-10T01:47:17;14.70;86.60
40932;DHT22;36257;46.052;12.540;2023-05-10T01:49:54;14.60;86.70
40932;DHT22;36257;46.052;12.540;2023-05-10T01:52:25;14.50;87.00
40932;DHT22;36257;46.052;12.540;2023-05-10T01:55:01;14.40;87.10
40932;DHT22;36257;46.052;12.540;2023-05-10T01:57:33;14.30;87.00
40932;DHT22;36257;46.052;12.540;2023-05-10T02:00:03;14.20;87.20
40932;DHT22;36257;46.052;12.540;2023-05-10T02:02:33;14.20;87.40
40932;DHT22;36257;46.052;12.540;2023-05-10T02:05:00;14.30;87.30
40932;DHT22;36257;46.052;12.540;2023-05-10T02:07:28;14.30;86.70
40932;DHT22;36257;46.052;12.540;2023-05-10T02:09:55;14.30;86.20
40932;DHT22;36257;46.052;12.540;2023-05-10T02:12:24;14.30;86.30
40932;DHT22;36257;46.052;12.540;2023-05-10T02:14:52;14.40;86.20
40932;DHT22;36257;46.052;12.540;2023-05-10T02:17:19;14.40;86.10
40932;DHT22;36257;46.052;12.540;2023-05-10T02:19:46;14.40;85.80
40932;DHT22;36257;46.052;12.540;2023-05-10T02:22:13;14.50;85.90
40932;DHT22;36257;46.052;12.540;2023-05-10T02:24:40;14.50;85.80
40932;DHT22;36257;46.052;12.540;2023-05-10T02:27:07;14.40;86.30
40932;DHT22;36257;46.052;12.540;2023-05-10T02:29:35;14.40;86.40
40932;DHT22;36257;46.052;12.540;2023-05-10T02:32:02;14.40;86.40
40932;DHT22;36257;46.052;12.540;2023-05-10T02:34:28;14.30;86.80
40932;DHT22;36257;46.052;12.540;2023-05-10T02:36:56;14.30;87.00
40932;DHT22;36257;46.052;12.540;2023-05-10T02:39:23;14.30;87.50
40932;DHT22;36257;46.052;12.540;2023-05-10T02:41:50;14.30;87.70
40932;DHT22;36257;46.052;12.540;2023-05-10T02:44:20;14.30;88.20
40932;DHT22;36257;46.052;12.540;2023-05-10T02:46:47;14.20;88.80
40932;DHT22;36257;46.052;12.540;2023-05-10T02:49:13;14.20;88.70
40932;DHT22;36257;46.052;12.540;2023-05-10T02:51:48;14.10;88.40
40932;DHT22;36257;46.052;12.540;2023-05-10T02:54:20;14.10;88.40
40932;DHT22;36257;46.052;12.540;2023-05-10T02:56:51;14.10;88.40
40932;DHT22;36257;46.052;12.540;2023-05-10T02:59:19;14.10;88.60
40932;DHT22;36257;46.052;12.540;2023-05-10T03:01:45;14.10;88.40
40932;DHT22;36257;46.052;12.540;2023-05-10T03:04:10;14.20;88.40
40932;DHT22;36257;46.052;12.540;2023-05-10T03:06:36;14.20;88.40
40932;DHT22;36257;46.052;12.540;2023-05-10T03:09:02;14.20;88.90
40932;DHT22;36257;46.052;12.540;2023-05-10T03:17:15;14.10;90.20
40932;DHT22;36257;46.052;12.540;2023-05-10T03:19:54;14.00;90.50
40932;DHT22;36257;46.052;12.540;2023-05-10T03:22:26;14.00;90.80
40932;DHT22;36257;46.052;12.540;2023-05-10T03:24:56;14.10;91.00
40932;DHT22;36257;46.052;12.540;2023-05-10T03:27:24;14.00;92.00
40932;DHT22;36257;46.052;12.540;2023-05-10T03:29:50;14.00;93.10
40932;DHT22;36257;46.052;12.540;2023-05-10T03:32:16;14.00;93.50
40932;DHT22;36257;46.052;12.540;2023-05-10T03:34:42;14.00;93.10
40932;DHT22;36257;46.052;12.540;2023-05-10T03:37:10;14.00;93.30
40932;DHT22;36257;46.052;12.540;2023-05-10T03:39:36;14.00;93.00
40932;DHT22;36257;46.052;12.540;2023-05-10T03:42:02;13.90;92.50
40932;DHT22;36257;46.052;12.540;2023-05-10T03:44:27;13.90;92.40
40932;DHT22;36257;46.052;12.540;2023-05-10T03:46:53;13.90;92.50
40932;DHT22;36257;46.052;12.540;2023-05-10T03:49:19;13.90;92.80
40932;DHT22;36257;46.052;12.540;2023-05-10T03:51:44;13.90;92.70
40932;DHT22;36257;46.052;12.540;2023-05-10T03:54:10;14.00;92.20
40932;DHT22;36257;46.052;12.540;2023-05-10T03:56:36;14.00;92.80
40932;DHT22;36257;46.052;12.540;2023-05-10T03:59:01;13.90;92.80
40932;DHT22;36257;46.052;12.540;2023-05-10T04:01:27;13.80;93.90
40932;DHT22;36257;46.052;12.540;2023-05-10T04:03:53;13.70;93.70
40932;DHT22;36257;46.052;12.540;2023-05-10T04:06:19;13.60;94.40
40932;DHT22;36257;46.052;12.540;2023-05-10T04:08:45;13.60;94.50
40932;DHT22;36257;46.052;12.540;2023-05-10T04:11:11;13.60;94.70
40932;DHT22;36257;46.052;12.540;2023-05-10T04:13:38;13.70;95.20
40932;DHT22;36257;46.052;12.540;2023-05-10T04:16:04;13.70;95.50
40932;DHT22;36257;46.052;12.540;2023-05-10T04:18:30;13.80;95.50
40932;DHT22;36257;46.052;12.540;2023-05-10T04:20:56;13.80;95.70
40932;DHT22;36257;46.052;12.540;2023-05-10T04:23:22;13.80;96.10
40932;DHT22;36257;46.052;12.540;2023-05-10T04:25:48;13.80;96.60
40932;DHT22;36257;46.052;12.540;2023-05-10T04:28:14;13.80;96.60
40932;DHT22;36257;46.052;12.540;2023-05-10T04:30:41;13.80;96.90
40932;DHT22;36257;46.052;12.540;2023-05-10T04:33:06;13.80;95.90
40932;DHT22;36257;46.052;12.540;2023-05-10T04:35:32;13.70;96.20
40932;DHT22;36257;46.052;12.540;2023-05-10T04:37:58;13.70;96.00
40932;DHT22;36257;46.052;12.540;2023-05-10T04:40:23;13.70;96.20
40932;DHT22;36257;46.052;12.540;2023-05-10T04:42:49;13.70;96.60
40932;DHT22;36257;46.052;12.540;2023-05-10T04:45:14;13.70;96.70
40932;DHT22;36257;46.052;12.540;2023-05-10T04:47:40;13.70;97.10
40932;DHT22;36257;46.052;12.540;2023-05-10T04:50:07;13.70;97.60
40932;DHT22;36257;46.052;12.540;2023-05-10T04:52:33;13.80;98.30
40932;DHT22;36257;46.052;12.540;2023-05-10T04:54:59;13.80;98.30
40932;DHT22;36257;46.052;12.540;2023-05-10T04:57:25;13.80;98.20
40932;DHT22;36257;46.052;12.540;2023-05-10T04:59:50;13.80;98.60
40932;DHT22;36257;46.052;12.540;2023-05-10T05:02:16;13.80;98.60
40932;DHT22;36257;46.052;12.540;2023-05-10T05:04:42;13.80;98.50
40932;DHT22;36257;46.052;12.540;2023-05-10T05:07:07;13.80;98.30
40932;DHT22;36257;46.052;12.540;2023-05-10T05:09:33;13.80;98.70
40932;DHT22;36257;46.052;12.540;2023-05-10T05:11:59;13.80;99.20
40932;DHT22;36257;46.052;12.540;2023-05-10T05:14:25;13.80;99.90
40932;DHT22;36257;46.052;12.540;2023-05-10T05:16:54;13.80;99.90
40932;DHT22;36257;46.052;12.540;2023-05-10T05:19:22;13.80;99.90
40932;DHT22;36257;46.052;12.540;2023-05-10T05:21:48;13.90;99.90
40932;DHT22;36257;46.052;12.540;2023-05-10T05:24:13;13.90;99.70
40932;DHT22;36257;46.052;12.540;2023-05-10T05:26:39;13.90;99.70
40932;DHT22;36257;46.052;12.540;2023-05-10T05:29:05;13.80;99.90
40932;DHT22;36257;46.052;12.540;2023-05-10T05:31:30;13.80;99.70
40932;DHT22;36257;46.052;12.540;2023-05-10T05:33:56;13.90;99.80
40932;DHT22;36257;46.052;12.540;2023-05-10T05:36:21;14.00;99.40
40932;DHT22;36257;46.052;12.540;2023-05-10T05:38:47;14.10;98.90
40932;DHT22;36257;46.052;12.540;2023-05-10T05:41:13;14.10;98.60
40932;DHT22;36257;46.052;12.540;2023-05-10T05:43:39;14.20;98.00
40932;DHT22;36257;46.052;12.540;2023-05-10T05:46:04;14.20;98.20
40932;DHT22;36257;46.052;12.540;2023-05-10T05:48:30;14.20;98.10
40932;DHT22;36257;46.052;12.540;2023-05-10T05:50:56;14.30;97.50
40932;DHT22;36257;46.052;12.540;2023-05-10T05:53:22;14.40;97.50
40932;DHT22;36257;46.052;12.540;2023-05-10T05:55:56;14.40;97.80
40932;DHT22;36257;46.052;12.540;2023-05-10T05:58:23;14.50;97.00
40932;DHT22;36257;46.052;12.540;2023-05-10T06:00:50;14.60;95.80
40932;DHT22;36257;46.052;12.540;2023-05-10T06:03:16;14.60;95.80
40932;DHT22;36257;46.052;12.540;2023-05-10T06:05:41;14.70;95.10
40932;DHT22;36257;46.052;12.540;2023-05-10T06:08:07;14.80;92.70
40932;DHT22;36257;46.052;12.540;2023-05-10T06:10:33;14.90;91.40
40932;DHT22;36257;46.052;12.540;2023-05-10T06:12:58;14.90;91.20
40932;DHT22;36257;46.052;12.540;2023-05-10T06:15:24;15.00;90.60
40932;DHT22;36257;46.052;12.540;2023-05-10T06:17:50;15.00;91.80
40932;DHT22;36257;46.052;12.540;2023-05-10T06:20:16;15.00;93.60
40932;DHT22;36257;46.052;12.540;2023-05-10T06:22:42;15.10;92.30
40932;DHT22;36257;46.052;12.540;2023-05-10T06:25:08;15.20;92.90
40932;DHT22;36257;46.052;12.540;2023-05-10T06:27:34;15.20;91.90
40932;DHT22;36257;46.052;12.540;2023-05-10T06:29:59;15.30;92.10
40932;DHT22;36257;46.052;12.540;2023-05-10T06:32:25;15.40;91.90
40932;DHT22;36257;46.052;12.540;2023-05-10T06:34:51;15.40;91.60
40932;DHT22;36257;46.052;12.540;2023-05-10T06:37:17;15.50;91.40
40932;DHT22;36257;46.052;12.540;2023-05-10T06:39:43;15.50;90.90
40932;DHT22;36257;46.052;12.540;2023-05-10T06:42:08;15.60;91.80
40932;DHT22;36257;46.052;12.540;2023-05-10T06:44:34;15.60;91.90
40932;DHT22;36257;46.052;12.540;2023-05-10T06:47:00;15.60;91.10
40932;DHT22;36257;46.052;12.540;2023-05-10T06:49:25;15.60;88.70
40932;DHT22;36257;46.052;12.540;2023-05-10T06:51:51;15.60;86.10
40932;DHT22;36257;46.052;12.540;2023-05-10T06:54:17;15.60;85.00
40932;DHT22;36257;46.052;12.540;2023-05-10T06:56:43;15.50;84.60
40932;DHT22;36257;46.052;12.540;2023-05-10T06:59:08;15.50;85.40
40932;DHT22;36257;46.052;12.540;2023-05-10T07:01:34;15.50;86.60
40932;DHT22;36257;46.052;12.540;2023-05-10T07:04:00;15.50;84.60
40932;DHT22;36257;46.052;12.540;2023-05-10T07:06:26;15.60;86.10
40932;DHT22;36257;46.052;12.540;2023-05-10T07:08:51;15.60;86.30
40932;DHT22;36257;46.052;12.540;2023-05-10T07:11:17;15.60;86.20
40932;DHT22;36257;46.052;12.540;2023-05-10T07:13:42;15.60;86.80
40932;DHT22;36257;46.052;12.540;2023-05-10T07:16:09;15.70;85.60
40932;DHT22;36257;46.052;12.540;2023-05-10T07:18:35;15.80;86.10
40932;DHT22;36257;46.052;12.540;2023-05-10T07:21:01;15.80;86.80
40932;DHT22;36257;46.052;12.540;2023-05-10T07:23:27;15.80;87.10
40932;DHT22;36257;46.052;12.540;2023-05-10T07:25:53;15.80;86.50
40932;DHT22;36257;46.052;12.540;2023-05-10T07:28:19;15.90;86.90
40932;DHT22;36257;46.052;12.540;2023-05-10T07:30:45;15.90;89.00
40932;DHT22;36257;46.052;12.540;2023-05-10T07:33:12;15.90;87.90
40932;DHT22;36257;46.052;12.540;2023-05-10T07:35:38;16.00;87.90
40932;DHT22;36257;46.052;12.540;2023-05-10T07:38:04;16.00;88.70
40932;DHT22;36257;46.052;12.540;2023-05-10T07:40:30;16.00;89.10
40932;DHT22;36257;46.052;12.540;2023-05-10T07:42:56;16.00;89.10
40932;DHT22;36257;46.052;12.540;2023-05-10T07:45:22;16.00;90.30
40932;DHT22;36257;46.052;12.540;2023-05-10T07:47:48;16.10;91.60
40932;DHT22;36257;46.052;12.540;2023-05-10T07:50:14;16.10;90.60
40932;DHT22;36257;46.052;12.540;2023-05-10T07:52:40;16.20;90.00
40932;DHT22;36257;46.052;12.540;2023-05-10T07:55:06;16.10;90.30
40932;DHT22;36257;46.052;12.540;2023-05-10T07:57:33;16.10;91.10
40932;DHT22;36257;46.052;12.540;2023-05-10T07:59:59;16.00;91.30
40932;DHT22;36257;46.052;12.540;2023-05-10T08:02:25;16.00;91.40
40932;DHT22;36257;46.052;12.540;2023-05-10T08:04:50;15.90;92.90
40932;DHT22;36257;46.052;12.540;2023-05-10T08:07:17;16.00;90.80
40932;DHT22;36257;46.052;12.540;2023-05-10T08:09:42;15.90;91.60
40932;DHT22;36257;46.052;12.540;2023-05-10T08:12:08;15.90;93.10
40932;DHT22;36257;46.052;12.540;2023-05-10T08:14:34;15.90;93.60
40932;DHT22;36257;46.052;12.540;2023-05-10T08:17:02;15.90;93.70
40932;DHT22;36257;46.052;12.540;2023-05-10T08:19:27;15.90;93.60
40932;DHT22;36257;46.052;12.540;2023-05-10T08:21:53;15.90;92.00
40932;DHT22;36257;46.052;12.540;2023-05-10T08:24:21;15.70;91.30
40932;DHT22;36257;46.052;12.540;2023-05-10T08:26:46;15.60;90.20
40932;DHT22;36257;46.052;12.540;2023-05-10T08:29:13;15.60;91.20
40932;DHT22;36257;46.052;12.540;2023-05-10T08:31:39;15.60;90.50
40932;DHT22;36257;46.052;12.540;2023-05-10T08:34:05;15.50;90.60
40932;DHT22;36257;46.052;12.540;2023-05-10T08:36:30;15.60;92.80
40932;DHT22;36257;46.052;12.540;2023-05-10T08:38:57;15.60;91.70
40932;DHT22;36257;46.052;12.540;2023-05-10T08:41:24;15.40;91.90
40932;DHT22;36257;46.052;12.540;2023-05-10T08:43:54;15.40;93.30
40932;DHT22;36257;46.052;12.540;2023-05-10T08:46:22;15.40;95.20
40932;DHT22;36257;46.052;12.540;2023-05-10T08:48:50;15.40;96.00
40932;DHT22;36257;46.052;12.540;2023-05-10T08:51:17;15.50;95.90
40932;DHT22;36257;46.052;12.540;2023-05-10T08:53:43;15.50;95.70
40932;DHT22;36257;46.052;12.540;2023-05-10T08:56:09;15.60;96.20
40932;DHT22;36257;46.052;12.540;2023-05-10T08:58:37;15.60;96.40
40932;DHT22;36257;46.052;12.540;2023-05-10T09:01:03;15.60;96.50
40932;DHT22;36257;46.052;12.540;2023-05-10T09:03:29;15.70;97.90
40932;DHT22;36257;46.052;12.540;2023-05-10T09:05:55;15.70;97.00
40932;DHT22;36257;46.052;12.540;2023-05-10T09:08:23;15.80;97.00
40932;DHT22;36257;46.052;12.540;2023-05-10T09:10:51;15.70;96.00
40932;DHT22;36257;46.052;12.540;2023-05-10T09:13:18;15.80;97.00
40932;DHT22;36257;46.052;12.540;2023-05-10T09:15:44;15.80;97.00
40932;DHT22;36257;46.052;12.540;2023-05-10T09:18:10;15.80;97.70
40932;DHT22;36257;46.052;12.540;2023-05-10T09:20:36;15.80;97.00
40932;DHT22;36257;46.052;12.540;2023-05-10T09:23:02;15.70;96.60
40932;DHT22;36257;46.052;12.540;2023-05-10T09:25:27;15.60;98.30
40932;DHT22;36257;46.052;12.540;2023-05-10T09:27:53;15.60;97.20
40932;DHT22;36257;46.052;12.540;2023-05-10T09:30:25;15.60;96.80
40932;DHT22;36257;46.052;12.540;2023-05-10T09:32:51;15.60;97.70
40932;DHT22;36257;46.052;12.540;2023-05-10T09:35:19;15.60;97.80
40932;DHT22;36257;46.052;12.540;2023-05-10T09:37:48;15.60;98.00
40932;DHT22;36257;46.052;12.540;2023-05-10T09:40:15;15.50;98.50
40932;DHT22;36257;46.052;12.540;2023-05-10T09:43:02;15.40;98.40
40932;DHT22;36257;46.052;12.540;2023-05-10T09:45:31;15.40;98.50
40932;DHT22;36257;46.052;12.540;2023-05-10T09:47:58;15.40;99.30
40932;DHT22;36257;46.052;12.540;2023-05-10T09:50:25;15.20;97.70
40932;DHT22;36257;46.052;12.540;2023-05-10T09:52:55;15.20;98.10
40932;DHT22;36257;46.052;12.540;2023-05-10T09:55:46;15.10;99.10
40932;DHT22;36257;46.052;12.540;2023-05-10T09:58:12;15.10;99.60
40932;DHT22;36257;46.052;12.540;2023-05-10T10:00:45;15.00;99.10
40932;DHT22;36257;46.052;12.540;2023-05-10T10:03:18;14.90;98.80
40932;DHT22;36257;46.052;12.540;2023-05-10T10:05:44;14.80;99.10
40932;DHT22;36257;46.052;12.540;2023-05-10T10:08:11;14.80;99.90
40932;DHT22;36257;46.052;12.540;2023-05-10T10:10:37;14.80;99.50
40932;DHT22;36257;46.052;12.540;2023-05-10T10:13:06;14.80;99.20
40932;DHT22;36257;46.052;12.540;2023-05-10T10:15:33;14.70;99.90
40932;DHT22;36257;46.052;12.540;2023-05-10T10:17:59;14.70;99.90
40932;DHT22;36257;46.052;12.540;2023-05-10T10:20:26;14.60;99.90
40932;DHT22;36257;46.052;12.540;2023-05-10T10:22:52;14.60;99.90
40932;DHT22;36257;46.052;12.540;2023-05-10T10:25:20;14.50;99.10
40932;DHT22;36257;46.052;12.540;2023-05-10T10:35:29;14.30;99.90
40932;DHT22;36257;46.052;12.540;2023-05-10T10:37:56;14.40;99.90
40932;DHT22;36257;46.052;12.540;2023-05-10T10:40:33;14.50;99.90
40932;DHT22;36257;46.052;12.540;2023-05-10T10:43:25;14.50;99.90
40932;DHT22;36257;46.052;12.540;2023-05-10T10:46:10;14.50;99.90
40932;DHT22;36257;46.052;12.540;2023-05-10T10:48:36;14.50;99.90
40932;DHT22;36257;46.052;12.540;2023-05-10T10:51:02;14.60;99.90
40932;DHT22;36257;46.052;12.540;2023-05-10T10:53:28;14.60;99.90
40932;DHT22;36257;46.052;12.540;2023-05-10T10:56:21;14.50;99.90
40932;DHT22;36257;46.052;12.540;2023-05-10T10:58:49;14.50;99.90
40932;DHT22;36257;46.052;12.540;2023-05-10T11:01:19;14.60;99.90
40932;DHT22;36257;46.052;12.540;2023-05-10T11:06:33;14.60;99.90
40932;DHT22;36257;46.052;12.540;2023-05-10T11:09:12;14.60;99.90
40932;DHT22;36257;46.052;12.540;2023-05-10T11:11:54;14.60;99.90
40932;DHT22;36257;46.052;12.540;2023-05-10T11:14:24;14.50;99.90
40932;DHT22;36257;46.052;12.540;2023-05-10T11:16:50;14.40;99.90
40932;DHT22;36257;46.052;12.540;2023-05-10T11:19:16;14.30;99.90
40932;DHT22;36257;46.052;12.540;2023-05-10T11:21:50;14.30;99.90
40932;DHT22;36257;46.052;12.540;2023-05-10T11:24:22;14.30;99.90
40932;DHT22;36257;46.052;12.540;2023-05-10T11:26:50;14.30;99.90
40932;DHT22;36257;46.052;12.540;2023-05-10T11:29:17;14.30;99.90
40932;DHT22;36257;46.052;12.540;2023-05-10T11:31:44;14.30;99.90
40932;DHT22;36257;46.052;12.540;2023-05-10T11:34:10;14.30;99.90
40932;DHT22;36257;46.052;12.540;2023-05-10T11:36:36;14.40;99.90
40932;DHT22;36257;46.052;12.540;2023-05-10T11:39:02;14.40;99.90
40932;DHT22;36257;46.052;12.540;2023-05-10T11:41:30;14.50;99.90
40932;DHT22;36257;46.052;12.540;2023-05-10T11:43:56;14.50;99.90
40932;DHT22;36257;46.052;12.540;2023-05-10T11:46:26;14.50;99.90
40932;DHT22;36257;46.052;12.540;2023-05-10T11:49:00;14.60;99.90
40932;DHT22;36257;46.052;12.540;2023-05-10T11:51:36;14.60;99.90
40932;DHT22;36257;46.052;12.540;2023-05-10T11:54:12;14.60;99.90
40932;DHT22;36257;46.052;12.540;2023-05-10T11:56:38;14.50;99.90
40932;DHT22;36257;46.052;12.540;2023-05-10T11:59:04;14.50;99.90
40932;DHT22;36257;46.052;12.540;2023-05-10T12:01:31;14.50;99.90
40932;DHT22;36257;46.052;12.540;2023-05-10T12:03:57;14.60;99.90
40932;DHT22;36257;46.052;12.540;2023-05-10T12:06:27;14.50;99.90
40932;DHT22;36257;46.052;12.540;2023-05-10T12:08:53;14.40;99.90
40932;DHT22;36257;46.052;12.540;2023-05-10T12:11:20;14.40;99.90
40932;DHT22;36257;46.052;12.540;2023-05-10T12:13:47;14.40;99.90
40932;DHT22;36257;46.052;12.540;2023-05-10T12:16:23;14.30;99.90
40932;DHT22;36257;46.052;12.540;2023-05-10T12:18:56;14.30;99.90
40932;DHT22;36257;46.052;12.540;2023-05-10T12:21:22;14.20;99.90
40932;DHT22;36257;46.052;12.540;2023-05-10T12:23:53;14.10;99.90
40932;DHT22;36257;46.052;12.540;2023-05-10T12:26:22;14.10;99.90
40932;DHT22;36257;46.052;12.540;2023-05-10T12:28:47;14.10;99.90
40932;DHT22;36257;46.052;12.540;2023-05-10T12:31:13;14.10;99.90
40932;DHT22;36257;46.052;12.540;2023-05-10T12:33:40;14.20;99.90
40932;DHT22;36257;46.052;12.540;2023-05-10T12:36:11;14.20;99.90
40932;DHT22;36257;46.052;12.540;2023-05-10T12:38:38;14.30;99.90
40932;DHT22;36257;46.052;12.540;2023-05-10T12:41:06;14.30;99.90
40932;DHT22;36257;46.052;12.540;2023-05-10T12:43:32;14.40;99.90
40932;DHT22;36257;46.052;12.540;2023-05-10T12:45:58;14.40;99.90
40932;DHT22;36257;46.052;12.540;2023-05-10T12:48:24;14.50;99.90
40932;DHT22;36257;46.052;12.540;2023-05-10T12:50:50;14.50;99.90
40932;DHT22;36257;46.052;12.540;2023-05-10T12:53:16;14.50;99.90
40932;DHT22;36257;46.052;12.540;2023-05-10T12:55:43;14.50;99.90
40932;DHT22;36257;46.052;12.540;2023-05-10T12:58:08;14.50;99.90
40932;DHT22;36257;46.052;12.540;2023-05-10T13:00:34;14.60;99.90
40932;DHT22;36257;46.052;12.540;2023-05-10T13:03:00;14.60;99.90
40932;DHT22;36257;46.052;12.540;2023-05-10T13:05:25;14.50;99.90
40932;DHT22;36257;46.052;12.540;2023-05-10T13:07:51;14.60;99.90
40932;DHT22;36257;46.052;12.540;2023-05-10T13:10:17;14.60;99.90
40932;DHT22;36257;46.052;12.540;2023-05-10T13:12:42;14.60;99.90
40932;DHT22;36257;46.052;12.540;2023-05-10T13:15:08;14.60;99.90
40932;DHT22;36257;46.052;12.540;2023-05-10T13:17:34;14.60;99.90
40932;DHT22;36257;46.052;12.540;2023-05-10T13:20:00;14.60;99.90
40932;DHT22;36257;46.052;12.540;2023-05-10T13:22:26;14.60;99.90
40932;DHT22;36257;46.052;12.540;2023-05-10T13:24:51;14.70;99.90
40932;DHT22;36257;46.052;12.540;2023-05-10T13:27:17;14.70;99.90
40932;DHT22;36257;46.052;12.540;2023-05-10T13:29:42;14.70;99.90
40932;DHT22;36257;46.052;12.540;2023-05-10T13:32:08;14.70;99.90
40932;DHT22;36257;46.052;12.540;2023-05-10T13:34:34;14.70;99.90
40932;DHT22;36257;46.052;12.540;2023-05-10T13:37:01;14.70;99.90
40932;DHT22;36257;46.052;12.540;2023-05-10T13:39:27;14.60;99.90
40932;DHT22;36257;46.052;12.540;2023-05-10T13:41:52;14.60;99.90
40932;DHT22;36257;46.052;12.540;2023-05-10T13:44:19;14.60;99.90
40932;DHT22;36257;46.052;12.540;2023-05-10T13:46:45;14.60;99.90
40932;DHT22;36257;46.052;12.540;2023-05-10T13:49:11;14.70;99.90
40932;DHT22;36257;46.052;12.540;2023-05-10T13:51:36;14.60;99.90
40932;DHT22;36257;46.052;12.540;2023-05-10T13:54:02;14.60;99.90
40932;DHT22;36257;46.052;12.540;2023-05-10T13:56:28;14.60;99.90
40932;DHT22;36257;46.052;12.540;2023-05-10T13:58:54;14.60;99.90
40932;DHT22;36257;46.052;12.540;2023-05-10T14:01:19;14.60;99.90
40932;DHT22;36257;46.052;12.540;2023-05-10T14:03:45;14.60;99.90
40932;DHT22;36257;46.052;12.540;2023-05-10T14:06:11;14.60;99.90
40932;DHT22;36257;46.052;12.540;2023-05-10T14:08:37;14.60;99.90
40932;DHT22;36257;46.052;12.540;2023-05-10T14:11:02;14.60;99.90
40932;DHT22;36257;46.052;12.540;2023-05-10T14:13:28;14.50;99.90
40932;DHT22;36257;46.052;12.540;2023-05-10T14:15:54;14.50;99.90
40932;DHT22;36257;46.052;12.540;2023-05-10T14:18:20;14.60;99.90
40932;DHT22;36257;46.052;12.540;2023-05-10T14:20:46;14.60;99.90
40932;DHT22;36257;46.052;12.540;2023-05-10T14:23:12;14.60;99.90
40932;DHT22;36257;46.052;12.540;2023-05-10T14:25:41;14.60;99.90
40932;DHT22;36257;46.052;12.540;2023-05-10T14:28:07;14.60;99.90
40932;DHT22;36257;46.052;12.540;2023-05-10T14:30:33;14.60;99.90
40932;DHT22;36257;46.052;12.540;2023-05-10T14:33:00;14.60;99.90
40932;DHT22;36257;46.052;12.540;2023-05-10T14:35:27;14.70;99.90
40932;DHT22;36257;46.052;12.540;2023-05-10T14:37:53;14.70;99.90
40932;DHT22;36257;46.052;12.540;2023-05-10T14:40:19;14.70;99.90
40932;DHT22;36257;46.052;12.540;2023-05-10T14:42:44;14.70;99.90
40932;DHT22;36257;46.052;12.540;2023-05-10T14:45:10;14.60;99.90
40932;DHT22;36257;46.052;12.540;2023-05-10T14:47:36;14.60;99.90
40932;DHT22;36257;46.052;12.540;2023-05-10T14:50:02;14.50;99.90
40932;DHT22;36257;46.052;12.540;2023-05-10T14:52:29;14.40;99.90
40932;DHT22;36257;46.052;12.540;2023-05-10T14:54:55;14.40;99.90
40932;DHT22;36257;46.052;12.540;2023-05-10T14:57:20;14.40;99.90
40932;DHT22;36257;46.052;12.540;2023-05-10T14:59:46;14.30;99.90
40932;DHT22;36257;46.052;12.540;2023-05-10T15:02:12;14.30;99.90
40932;DHT22;36257;46.052;12.540;2023-05-10T15:04:38;14.30;99.90
40932;DHT22;36257;46.052;12.540;2023-05-10T15:07:03;14.30;99.90
40932;DHT22;36257;46.052;12.540;2023-05-10T15:09:29;14.30;99.90
40932;DHT22;36257;46.052;12.540;2023-05-10T15:11:55;14.20;99.90
40932;DHT22;36257;46.052;12.540;2023-05-10T15:14:21;14.20;99.90
40932;DHT22;36257;46.052;12.540;2023-05-10T15:16:47;14.20;99.90
40932;DHT22;36257;46.052;12.540;2023-05-10T15:19:12;14.20;99.90
40932;DHT22;36257;46.052;12.540;2023-05-10T15:21:38;14.30;99.90
40932;DHT22;36257;46.052;12.540;2023-05-10T15:24:07;14.30;99.90
40932;DHT22;36257;46.052;12.540;2023-05-10T15:26:33;14.30;99.90
40932;DHT22;36257;46.052;12.540;2023-05-10T15:28:59;14.30;99.90
40932;DHT22;36257;46.052;12.540;2023-05-10T15:31:26;14.20;99.90
40932;DHT22;36257;46.052;12.540;2023-05-10T15:33:57;14.10;99.90
40932;DHT22;36257;46.052;12.540;2023-05-10T15:36:23;14.10;99.90
40932;DHT22;36257;46.052;12.540;2023-05-10T15:38:48;14.10;99.90
40932;DHT22;36257;46.052;12.540;2023-05-10T15:41:14;14.20;99.90
40932;DHT22;36257;46.052;12.540;2023-05-10T15:43:40;14.10;99.90
40932;DHT22;36257;46.052;12.540;2023-05-10T15:46:05;14.10;99.90